sensor_id;sensor_type;location;lat;lon;timestamp;pressure;altitude;pressure_sealevel;temperature;humidity
16595;BME280;8410;52.532;13.336;2023-02-12T00:00:48;102890.34;;;9.68;94.26
16595;BME280;8410;52.532;13.336;2023-02-12T00:03:17;102895.09;;;9.11;97.14
16595;BME280;8410;52.532;13.336;2023-02-12T00:05:44;102893.91;;;9.04;97.94
16595;BME280;8410;52.532;13.336;2023-02-12T00:08:12;102891.38;;;8.73;99.94
16595;BME280;8410;52.532;13.336;2023-02-12T00:10:42;102900.66;;;8.71;100.00
16595;BME280;8410;52.532;13.336;2023-02-12T00:13:10;102906.81;;;9.06;100.00
16595;BME280;8410;52.532;13.336;2023-02-12T00:15:38;102902.84;;;9.27;97.33
16595;BME280;8410;52.532;13.336;2023-02-12T00:18:07;102914.31;;;9.18;97.37
16595;BME280;8410;52.532;13.336;2023-02-12T00:20:36;102910.72;;;9.31;97.28
16595;BME280;8410;52.532;13.336;2023-02-12T00:23:04;102912.19;;;8.94;97.50
16595;BME280;8410;52.532;13.336;2023-02-12T00:25:32;102913.34;;;9.16;99.42
16595;BME280;8410;52.532;13.336;2023-02-12T00:27:59;102908.78;;;9.10;97.36
16595;BME280;8410;52.532;13.336;2023-02-12T00:30:27;102918.47;;;9.48;97.04
16595;BME280;8410;52.532;13.336;2023-02-12T00:32:55;102924.75;;;9.54;95.79
16595;BME280;8410;52.532;13.336;2023-02-12T00:35:23;102917.91;;;9.54;94.74
16595;BME280;8410;52.532;13.336;2023-02-12T00:37:51;102925.41;;;9.17;96.17
16595;BME280;8410;52.532;13.336;2023-02-12T00:40:19;102919.44;;;9.01;96.68
16595;BME280;8410;52.532;13.336;2023-02-12T00:42:46;102916.72;;;9.15;98.29
16595;BME280;8410;52.532;13.336;2023-02-12T00:45:14;102919.75;;;8.91;97.76
16595;BME280;8410;52.532;13.336;2023-02-12T00:47:41;102920.66;;;9.41;96.90
16595;BME280;8410;52.532;13.336;2023-02-12T00:50:09;102927.47;;;9.24;96.68
16595;BME280;8410;52.532;13.336;2023-02-12T00:52:38;102931.75;;;8.76;98.41
16595;BME280;8410;52.532;13.336;2023-02-12T00:55:06;102931.28;;;8.83;98.76
16595;BME280;8410;52.532;13.336;2023-02-12T00:57:34;102932.47;;;8.42;99.75
16595;BME280;8410;52.532;13.336;2023-02-12T01:00:02;102934.81;;;8.39;100.00
16595;BME280;8410;52.532;13.336;2023-02-12T01:02:30;102934.59;;;8.66;100.00
16595;BME280;8410;52.532;13.336;2023-02-12T01:04:57;102938.25;;;8.54;100.00
16595;BME280;8410;52.532;13.336;2023-02-12T01:07:25;102941.00;;;8.57;100.00
16595;BME280;8410;52.532;13.336;2023-02-12T01:09:53;102936.22;;;8.64;100.00
16595;BME280;8410;52.532;13.336;2023-02-12T01:12:21;102935.66;;;8.69;99.32
16595;BME280;8410;52.532;13.336;2023-02-12T01:14:48;102938.97;;;8.67;99.60
16595;BME280;8410;52.532;13.336;2023-02-12T01:17:16;102936.28;;;8.96;97.89
16595;BME280;8410;52.532;13.336;2023-02-12T01:19:43;102948.19;;;9.27;98.59
16595;BME280;8410;52.532;13.336;2023-02-12T01:22:11;102946.47;;;8.95;97.48
16595;BME280;8410;52.532;13.336;2023-02-12T01:24:38;102958.19;;;8.90;97.60
16595;BME280;8410;52.532;13.336;2023-02-12T01:27:07;102951.88;;;8.99;97.43
16595;BME280;8410;52.532;13.336;2023-02-12T01:29:34;102948.97;;;8.93;99.46
16595;BME280;8410;52.532;13.336;2023-02-12T01:32:02;102950.00;;;8.66;100.00
16595;BME280;8410;52.532;13.336;2023-02-12T01:34:30;102955.56;;;9.04;98.33
16595;BME280;8410;52.532;13.336;2023-02-12T01:36:57;102959.88;;;8.89;98.44
16595;BME280;8410;52.532;13.336;2023-02-12T01:39:25;102960.91;;;8.61;99.58
16595;BME280;8410;52.532;13.336;2023-02-12T01:41:52;102965.56;;;9.15;97.61
16595;BME280;8410;52.532;13.336;2023-02-12T01:44:22;102965.97;;;8.91;97.27
16595;BME280;8410;52.532;13.336;2023-02-12T01:46:55;102967.78;;;9.09;97.68
16595;BME280;8410;52.532;13.336;2023-02-12T01:49:25;102973.91;;;9.27;96.35
16595;BME280;8410;52.532;13.336;2023-02-12T01:51:58;102976.88;;;9.35;96.55
16595;BME280;8410;52.532;13.336;2023-02-12T01:54:27;102979.97;;;9.44;94.84
16595;BME280;8410;52.532;13.336;2023-02-12T01:56:55;102978.88;;;9.24;95.66
16595;BME280;8410;52.532;13.336;2023-02-12T01:59:24;102978.19;;;9.59;94.74
16595;BME280;8410;52.532;13.336;2023-02-12T02:01:53;102983.56;;;9.64;93.70
16595;BME280;8410;52.532;13.336;2023-02-12T02:04:24;102981.81;;;8.99;95.75
16595;BME280;8410;52.532;13.336;2023-02-12T02:06:56;102990.28;;;9.13;95.76
16595;BME280;8410;52.532;13.336;2023-02-12T02:09:25;102988.78;;;8.85;96.81
16595;BME280;8410;52.532;13.336;2023-02-12T02:11:53;102991.03;;;8.95;97.07
16595;BME280;8410;52.532;13.336;2023-02-12T02:14:40;102987.28;;;9.05;96.46
16595;BME280;8410;52.532;13.336;2023-02-12T02:17:34;102994.25;;;8.91;97.74
16595;BME280;8410;52.532;13.336;2023-02-12T02:23:19;102992.28;;;8.87;98.00
16595;BME280;8410;52.532;13.336;2023-02-12T02:26:18;102990.69;;;8.89;98.54
16595;BME280;8410;52.532;13.336;2023-02-12T02:28:58;102977.72;;;9.02;97.30
16595;BME280;8410;52.532;13.336;2023-02-12T02:31:36;102981.56;;;9.25;95.86
16595;BME280;8410;52.532;13.336;2023-02-12T02:34:10;102984.53;;;9.17;95.83
16595;BME280;8410;52.532;13.336;2023-02-12T02:36:44;102989.03;;;9.37;95.65
16595;BME280;8410;52.532;13.336;2023-02-12T02:39:30;102987.88;;;9.32;94.72
16595;BME280;8410;52.532;13.336;2023-02-12T02:42:08;102988.31;;;9.40;94.46
16595;BME280;8410;52.532;13.336;2023-02-12T02:44:40;102988.56;;;9.44;94.50
16595;BME280;8410;52.532;13.336;2023-02-12T02:47:11;102989.19;;;9.57;93.90
16595;BME280;8410;52.532;13.336;2023-02-12T02:49:43;102986.13;;;9.31;94.93
16595;BME280;8410;52.532;13.336;2023-02-12T02:52:18;102986.31;;;9.50;94.58
16595;BME280;8410;52.532;13.336;2023-02-12T02:54:49;102989.31;;;9.27;94.43
16595;BME280;8410;52.532;13.336;2023-02-12T02:57:23;102994.00;;;9.50;94.22
16595;BME280;8410;52.532;13.336;2023-02-12T02:59:55;103000.97;;;8.89;95.54
16595;BME280;8410;52.532;13.336;2023-02-12T03:02:28;103001.72;;;8.57;99.15
16595;BME280;8410;52.532;13.336;2023-02-12T03:05:01;103008.19;;;8.80;100.00
16595;BME280;8410;52.532;13.336;2023-02-12T03:07:33;103004.41;;;9.04;97.51
16595;BME280;8410;52.532;13.336;2023-02-12T03:10:06;103006.19;;;9.22;96.97
16595;BME280;8410;52.532;13.336;2023-02-12T03:12:40;103012.56;;;9.45;95.75
16595;BME280;8410;52.532;13.336;2023-02-12T03:15:13;103021.28;;;9.16;95.10
16595;BME280;8410;52.532;13.336;2023-02-12T03:17:47;103012.81;;;9.49;94.86
16595;BME280;8410;52.532;13.336;2023-02-12T03:20:18;103019.16;;;8.63;97.50
16595;BME280;8410;52.532;13.336;2023-02-12T03:22:51;103027.59;;;9.37;95.40
16595;BME280;8410;52.532;13.336;2023-02-12T03:25:23;103028.09;;;9.63;94.51
16595;BME280;8410;52.532;13.336;2023-02-12T03:27:56;103032.44;;;9.64;93.63
16595;BME280;8410;52.532;13.336;2023-02-12T03:30:37;103035.31;;;9.54;94.12
16595;BME280;8410;52.532;13.336;2023-02-12T03:33:15;103028.53;;;9.23;94.46
16595;BME280;8410;52.532;13.336;2023-02-12T03:35:47;103033.41;;;9.49;94.27
16595;BME280;8410;52.532;13.336;2023-02-12T03:38:27;103025.28;;;9.75;94.38
16595;BME280;8410;52.532;13.336;2023-02-12T03:41:01;103029.84;;;9.80;92.41
16595;BME280;8410;52.532;13.336;2023-02-12T03:43:33;103031.97;;;9.55;92.60
16595;BME280;8410;52.532;13.336;2023-02-12T03:46:11;103042.41;;;9.58;92.86
16595;BME280;8410;52.532;13.336;2023-02-12T03:48:46;103035.16;;;9.50;92.01
16595;BME280;8410;52.532;13.336;2023-02-12T03:51:21;103041.28;;;9.69;92.64
16595;BME280;8410;52.532;13.336;2023-02-12T03:53:51;103045.44;;;9.83;92.89
16595;BME280;8410;52.532;13.336;2023-02-12T03:56:21;103053.16;;;9.83;91.84
16595;BME280;8410;52.532;13.336;2023-02-12T03:58:50;103049.31;;;9.75;90.63
16595;BME280;8410;52.532;13.336;2023-02-12T04:01:18;103054.13;;;9.53;92.98
16595;BME280;8410;52.532;13.336;2023-02-12T04:03:47;103053.25;;;9.85;92.12
16595;BME280;8410;52.532;13.336;2023-02-12T04:06:18;103051.88;;;9.75;92.23
16595;BME280;8410;52.532;13.336;2023-02-12T04:08:46;103064.56;;;9.56;92.63
16595;BME280;8410;52.532;13.336;2023-02-12T04:11:21;103063.84;;;9.58;92.20
16595;BME280;8410;52.532;13.336;2023-02-12T04:14:03;103072.47;;;9.75;92.09
16595;BME280;8410;52.532;13.336;2023-02-12T04:16:40;103065.88;;;9.80;92.31
16595;BME280;8410;52.532;13.336;2023-02-12T04:19:15;103064.03;;;9.78;91.87
16595;BME280;8410;52.532;13.336;2023-02-12T04:21:53;103067.47;;;9.78;91.66
16595;BME280;8410;52.532;13.336;2023-02-12T04:24:28;103066.16;;;9.54;91.75
16595;BME280;8410;52.532;13.336;2023-02-12T04:27:06;103067.41;;;9.93;91.10
16595;BME280;8410;52.532;13.336;2023-02-12T04:29:44;103067.31;;;9.91;91.29
16595;BME280;8410;52.532;13.336;2023-02-12T04:32:17;103069.56;;;9.85;91.44
16595;BME280;8410;52.532;13.336;2023-02-12T04:34:52;103077.53;;;9.90;91.02
16595;BME280;8410;52.532;13.336;2023-02-12T04:37:27;103073.84;;;9.68;91.22
16595;BME280;8410;52.532;13.336;2023-02-12T04:39:58;103071.16;;;9.67;91.86
16595;BME280;8410;52.532;13.336;2023-02-12T04:42:26;103075.84;;;9.74;91.60
16595;BME280;8410;52.532;13.336;2023-02-12T04:44:54;103072.59;;;9.62;91.42
16595;BME280;8410;52.532;13.336;2023-02-12T04:47:21;103074.13;;;9.58;91.81
16595;BME280;8410;52.532;13.336;2023-02-12T04:49:50;103072.31;;;9.72;92.59
16595;BME280;8410;52.532;13.336;2023-02-12T04:52:17;103067.81;;;9.84;91.31
16595;BME280;8410;52.532;13.336;2023-02-12T04:54:45;103072.41;;;9.90;90.71
16595;BME280;8410;52.532;13.336;2023-02-12T04:57:12;103069.25;;;9.63;91.63
16595;BME280;8410;52.532;13.336;2023-02-12T04:59:40;103065.53;;;9.58;92.51
16595;BME280;8410;52.532;13.336;2023-02-12T05:02:07;103065.06;;;9.65;92.13
16595;BME280;8410;52.532;13.336;2023-02-12T05:04:35;103072.38;;;9.57;91.16
16595;BME280;8410;52.532;13.336;2023-02-12T05:07:04;103074.81;;;9.70;91.97
16595;BME280;8410;52.532;13.336;2023-02-12T05:09:31;103069.72;;;9.88;91.82
16595;BME280;8410;52.532;13.336;2023-02-12T05:11:59;103073.28;;;9.90;90.38
16595;BME280;8410;52.532;13.336;2023-02-12T05:14:26;103069.16;;;9.78;90.75
16595;BME280;8410;52.532;13.336;2023-02-12T05:16:54;103070.59;;;9.89;90.70
16595;BME280;8410;52.532;13.336;2023-02-12T05:19:22;103073.84;;;9.85;89.89
16595;BME280;8410;52.532;13.336;2023-02-12T05:21:50;103075.84;;;9.90;90.00
16595;BME280;8410;52.532;13.336;2023-02-12T05:24:18;103079.16;;;9.88;90.04
16595;BME280;8410;52.532;13.336;2023-02-12T05:26:47;103081.97;;;9.92;89.61
16595;BME280;8410;52.532;13.336;2023-02-12T05:29:15;103081.81;;;9.89;89.26
16595;BME280;8410;52.532;13.336;2023-02-12T05:31:43;103084.84;;;9.82;89.83
16595;BME280;8410;52.532;13.336;2023-02-12T05:34:12;103085.81;;;9.68;90.72
16595;BME280;8410;52.532;13.336;2023-02-12T05:36:40;103084.53;;;9.76;90.98
16595;BME280;8410;52.532;13.336;2023-02-12T05:39:07;103086.13;;;9.74;89.66
16595;BME280;8410;52.532;13.336;2023-02-12T05:41:36;103095.75;;;9.62;92.02
16595;BME280;8410;52.532;13.336;2023-02-12T05:44:04;103096.53;;;9.76;90.79
16595;BME280;8410;52.532;13.336;2023-02-12T05:46:32;103097.47;;;9.78;90.28
16595;BME280;8410;52.532;13.336;2023-02-12T05:49:00;103092.16;;;9.91;89.89
16595;BME280;8410;52.532;13.336;2023-02-12T05:51:28;103093.03;;;9.75;90.54
16595;BME280;8410;52.532;13.336;2023-02-12T05:53:58;103092.72;;;10.02;89.68
16595;BME280;8410;52.532;13.336;2023-02-12T05:56:28;103092.25;;;9.92;89.71
16595;BME280;8410;52.532;13.336;2023-02-12T05:58:58;103092.72;;;10.02;89.79
16595;BME280;8410;52.532;13.336;2023-02-12T06:01:29;103094.69;;;10.06;88.31
16595;BME280;8410;52.532;13.336;2023-02-12T06:03:58;103090.09;;;10.00;88.81
16595;BME280;8410;52.532;13.336;2023-02-12T06:06:26;103096.53;;;10.08;89.07
16595;BME280;8410;52.532;13.336;2023-02-12T06:08:53;103101.59;;;9.90;89.57
16595;BME280;8410;52.532;13.336;2023-02-12T06:11:21;103096.59;;;9.77;90.34
16595;BME280;8410;52.532;13.336;2023-02-12T06:13:49;103102.41;;;9.42;91.39
16595;BME280;8410;52.532;13.336;2023-02-12T06:16:20;103102.47;;;9.43;91.30
16595;BME280;8410;52.532;13.336;2023-02-12T06:18:48;103104.09;;;9.41;93.17
16595;BME280;8410;52.532;13.336;2023-02-12T06:21:17;103118.97;;;9.32;92.74
16595;BME280;8410;52.532;13.336;2023-02-12T06:23:45;103126.75;;;9.48;91.25
16595;BME280;8410;52.532;13.336;2023-02-12T06:26:13;103135.84;;;9.58;91.38
16595;BME280;8410;52.532;13.336;2023-02-12T06:28:41;103134.88;;;9.25;91.74
16595;BME280;8410;52.532;13.336;2023-02-12T06:31:17;103136.91;;;9.31;93.41
16595;BME280;8410;52.532;13.336;2023-02-12T06:33:47;103145.25;;;9.58;91.92
16595;BME280;8410;52.532;13.336;2023-02-12T06:36:15;103149.72;;;9.45;92.70
16595;BME280;8410;52.532;13.336;2023-02-12T06:38:43;103148.00;;;9.15;93.04
16595;BME280;8410;52.532;13.336;2023-02-12T06:41:11;103148.84;;;9.45;93.30
16595;BME280;8410;52.532;13.336;2023-02-12T06:43:38;103162.34;;;9.26;92.33
16595;BME280;8410;52.532;13.336;2023-02-12T06:46:06;103152.56;;;9.35;92.13
16595;BME280;8410;52.532;13.336;2023-02-12T06:48:34;103159.38;;;9.49;91.37
16595;BME280;8410;52.532;13.336;2023-02-12T06:51:08;103162.50;;;9.29;93.19
16595;BME280;8410;52.532;13.336;2023-02-12T06:53:36;103157.91;;;9.38;92.94
16595;BME280;8410;52.532;13.336;2023-02-12T06:56:06;103165.63;;;9.38;91.94
16595;BME280;8410;52.532;13.336;2023-02-12T06:58:37;103172.97;;;9.32;92.16
16595;BME280;8410;52.532;13.336;2023-02-12T07:01:09;103166.72;;;9.43;91.59
16595;BME280;8410;52.532;13.336;2023-02-12T07:03:39;103181.63;;;8.45;95.55
16595;BME280;8410;52.532;13.336;2023-02-12T07:06:09;103179.09;;;8.75;96.84
16595;BME280;8410;52.532;13.336;2023-02-12T07:08:37;103177.88;;;9.27;93.31
16595;BME280;8410;52.532;13.336;2023-02-12T07:11:05;103175.47;;;9.62;91.46
16595;BME280;8410;52.532;13.336;2023-02-12T07:13:33;103177.41;;;9.35;92.14
16595;BME280;8410;52.532;13.336;2023-02-12T07:16:04;103170.50;;;9.65;90.69
16595;BME280;8410;52.532;13.336;2023-02-12T07:18:33;103186.75;;;9.64;90.69
16595;BME280;8410;52.532;13.336;2023-02-12T07:21:01;103192.03;;;9.36;91.54
16595;BME280;8410;52.532;13.336;2023-02-12T07:23:30;103186.78;;;9.34;91.00
16595;BME280;8410;52.532;13.336;2023-02-12T07:25:59;103189.63;;;9.24;91.31
16595;BME280;8410;52.532;13.336;2023-02-12T07:28:27;103185.25;;;9.53;92.89
16595;BME280;8410;52.532;13.336;2023-02-12T07:30:59;103188.47;;;9.80;90.58
16595;BME280;8410;52.532;13.336;2023-02-12T07:33:26;103186.81;;;9.97;89.70
16595;BME280;8410;52.532;13.336;2023-02-12T07:35:54;103200.00;;;9.86;88.76
16595;BME280;8410;52.532;13.336;2023-02-12T07:38:22;103196.63;;;9.87;89.01
16595;BME280;8410;52.532;13.336;2023-02-12T07:40:51;103192.75;;;9.79;88.80
16595;BME280;8410;52.532;13.336;2023-02-12T07:43:18;103193.31;;;9.90;90.02
16595;BME280;8410;52.532;13.336;2023-02-12T07:45:46;103187.31;;;10.06;88.08
16595;BME280;8410;52.532;13.336;2023-02-12T07:48:13;103199.88;;;10.16;87.99
16595;BME280;8410;52.532;13.336;2023-02-12T07:50:41;103192.72;;;10.27;87.10
16595;BME280;8410;52.532;13.336;2023-02-12T07:53:08;103191.50;;;10.20;87.18
16595;BME280;8410;52.532;13.336;2023-02-12T07:55:36;103197.97;;;10.28;86.26
16595;BME280;8410;52.532;13.336;2023-02-12T07:58:04;103197.72;;;10.24;87.15
16595;BME280;8410;52.532;13.336;2023-02-12T08:00:32;103202.88;;;10.24;86.96
16595;BME280;8410;52.532;13.336;2023-02-12T08:02:59;103211.66;;;9.96;88.36
16595;BME280;8410;52.532;13.336;2023-02-12T08:05:27;103210.84;;;10.28;87.33
16595;BME280;8410;52.532;13.336;2023-02-12T08:07:54;103206.63;;;10.14;87.64
16595;BME280;8410;52.532;13.336;2023-02-12T08:10:22;103208.91;;;10.24;86.91
16595;BME280;8410;52.532;13.336;2023-02-12T08:12:49;103205.03;;;10.16;87.37
16595;BME280;8410;52.532;13.336;2023-02-12T08:15:18;103208.13;;;10.42;86.20
16595;BME280;8410;52.532;13.336;2023-02-12T08:17:46;103210.69;;;10.58;86.14
16595;BME280;8410;52.532;13.336;2023-02-12T08:20:13;103216.00;;;10.45;85.12
16595;BME280;8410;52.532;13.336;2023-02-12T08:22:41;103223.66;;;9.96;87.07
16595;BME280;8410;52.532;13.336;2023-02-12T08:25:08;103223.34;;;10.06;86.80
16595;BME280;8410;52.532;13.336;2023-02-12T08:27:36;103224.34;;;10.24;86.70
16595;BME280;8410;52.532;13.336;2023-02-12T08:30:04;103225.94;;;10.22;85.72
16595;BME280;8410;52.532;13.336;2023-02-12T08:32:33;103232.84;;;10.07;86.33
16595;BME280;8410;52.532;13.336;2023-02-12T08:35:00;103231.66;;;10.16;86.53
16595;BME280;8410;52.532;13.336;2023-02-12T08:37:27;103239.53;;;10.51;85.62
16595;BME280;8410;52.532;13.336;2023-02-12T08:39:55;103235.50;;;10.56;85.08
16595;BME280;8410;52.532;13.336;2023-02-12T08:42:22;103245.00;;;10.57;85.65
16595;BME280;8410;52.532;13.336;2023-02-12T08:44:50;103250.44;;;10.30;85.84
16595;BME280;8410;52.532;13.336;2023-02-12T08:47:18;103249.72;;;10.33;86.36
16595;BME280;8410;52.532;13.336;2023-02-12T08:49:47;103256.50;;;10.16;85.85
16595;BME280;8410;52.532;13.336;2023-02-12T08:52:14;103257.16;;;10.59;85.80
16595;BME280;8410;52.532;13.336;2023-02-12T08:54:42;103260.59;;;10.27;85.70
16595;BME280;8410;52.532;13.336;2023-02-12T08:57:09;103262.75;;;10.05;86.16
16595;BME280;8410;52.532;13.336;2023-02-12T08:59:37;103266.25;;;10.22;87.00
16595;BME280;8410;52.532;13.336;2023-02-12T09:02:04;103264.16;;;10.62;85.66
16595;BME280;8410;52.532;13.336;2023-02-12T09:04:34;103266.78;;;10.64;84.73
16595;BME280;8410;52.532;13.336;2023-02-12T09:07:03;103269.34;;;10.00;85.47
16595;BME280;8410;52.532;13.336;2023-02-12T09:09:30;103268.47;;;10.30;88.69
16595;BME280;8410;52.532;13.336;2023-02-12T09:11:58;103259.31;;;10.35;89.76
16595;BME280;8410;52.532;13.336;2023-02-12T09:14:25;103261.19;;;12.29;90.64
16595;BME280;8410;52.532;13.336;2023-02-12T09:16:53;103261.75;;;12.22;86.44
16595;BME280;8410;52.532;13.336;2023-02-12T09:19:22;103264.75;;;12.50;82.54
16595;BME280;8410;52.532;13.336;2023-02-12T09:21:51;103265.19;;;12.60;84.13
16595;BME280;8410;52.532;13.336;2023-02-12T09:24:23;103269.34;;;13.58;82.33
16595;BME280;8410;52.532;13.336;2023-02-12T09:26:52;103273.16;;;13.45;81.60
16595;BME280;8410;52.532;13.336;2023-02-12T09:29:20;103275.16;;;13.52;80.95
16595;BME280;8410;52.532;13.336;2023-02-12T09:31:47;103266.97;;;13.41;78.11
16595;BME280;8410;52.532;13.336;2023-02-12T09:34:15;103266.94;;;13.83;79.35
16595;BME280;8410;52.532;13.336;2023-02-12T09:36:42;103287.66;;;13.62;77.91
16595;BME280;8410;52.532;13.336;2023-02-12T09:39:10;103290.13;;;13.38;76.71
16595;BME280;8410;52.532;13.336;2023-02-12T09:42:11;103288.25;;;13.15;78.15
16595;BME280;8410;52.532;13.336;2023-02-12T09:44:46;103288.56;;;12.82;77.80
16595;BME280;8410;52.532;13.336;2023-02-12T09:47:22;103286.81;;;13.21;78.76
16595;BME280;8410;52.532;13.336;2023-02-12T09:50:08;103287.94;;;13.48;80.14
16595;BME280;8410;52.532;13.336;2023-02-12T09:52:38;103289.19;;;13.36;77.28
16595;BME280;8410;52.532;13.336;2023-02-12T09:55:11;103292.72;;;13.38;77.02
16595;BME280;8410;52.532;13.336;2023-02-12T09:57:42;103294.09;;;13.30;79.93
16595;BME280;8410;52.532;13.336;2023-02-12T10:00:14;103293.34;;;13.54;78.42
16595;BME280;8410;52.532;13.336;2023-02-12T10:02:42;103299.56;;;12.97;79.45
16595;BME280;8410;52.532;13.336;2023-02-12T10:05:15;103293.91;;;13.67;76.37
16595;BME280;8410;52.532;13.336;2023-02-12T10:07:55;103287.19;;;14.16;75.02
16595;BME280;8410;52.532;13.336;2023-02-12T10:10:39;103288.75;;;13.67;74.24
16595;BME280;8410;52.532;13.336;2023-02-12T10:13:17;103294.16;;;13.12;77.00
16595;BME280;8410;52.532;13.336;2023-02-12T10:15:53;103294.13;;;12.72;78.66
16595;BME280;8410;52.532;13.336;2023-02-12T10:18:39;103296.84;;;12.36;79.45
16595;BME280;8410;52.532;13.336;2023-02-12T10:21:23;103294.22;;;12.17;79.69
16595;BME280;8410;52.532;13.336;2023-02-12T10:24:10;103290.81;;;12.00;80.83
16595;BME280;8410;52.532;13.336;2023-02-12T10:26:45;103298.78;;;11.68;83.43
16595;BME280;8410;52.532;13.336;2023-02-12T10:29:18;103292.78;;;11.69;84.24
16595;BME280;8410;52.532;13.336;2023-02-12T10:31:50;103290.59;;;11.77;83.07
16595;BME280;8410;52.532;13.336;2023-02-12T10:34:21;103298.75;;;11.51;85.60
16595;BME280;8410;52.532;13.336;2023-02-12T10:36:51;103298.91;;;11.72;84.21
16595;BME280;8410;52.532;13.336;2023-02-12T10:39:23;103292.66;;;11.66;83.78
16595;BME280;8410;52.532;13.336;2023-02-12T10:41:55;103300.59;;;11.53;87.26
16595;BME280;8410;52.532;13.336;2023-02-12T10:44:26;103304.47;;;11.45;86.10
16595;BME280;8410;52.532;13.336;2023-02-12T10:46:54;103297.19;;;11.54;86.78
16595;BME280;8410;52.532;13.336;2023-02-12T10:49:22;103304.03;;;11.54;86.91
16595;BME280;8410;52.532;13.336;2023-02-12T10:51:57;103306.34;;;11.83;85.78
16595;BME280;8410;52.532;13.336;2023-02-12T10:54:35;103307.41;;;11.35;87.25
16595;BME280;8410;52.532;13.336;2023-02-12T10:57:07;103299.66;;;11.35;88.37
16595;BME280;8410;52.532;13.336;2023-02-12T10:59:38;103300.06;;;11.42;88.64
16595;BME280;8410;52.532;13.336;2023-02-12T11:02:17;103291.47;;;11.25;87.84
16595;BME280;8410;52.532;13.336;2023-02-12T11:04:45;103303.66;;;10.46;90.56
16595;BME280;8410;52.532;13.336;2023-02-12T11:07:13;103306.97;;;9.98;94.32
16595;BME280;8410;52.532;13.336;2023-02-12T11:09:42;103297.50;;;10.13;95.79
16595;BME280;8410;52.532;13.336;2023-02-12T11:12:19;103303.41;;;10.58;91.87
16595;BME280;8410;52.532;13.336;2023-02-12T11:14:49;103300.88;;;10.12;94.08
16595;BME280;8410;52.532;13.336;2023-02-12T11:17:23;103310.28;;;9.65;96.56
16595;BME280;8410;52.532;13.336;2023-02-12T11:20:05;103305.00;;;9.93;97.02
16595;BME280;8410;52.532;13.336;2023-02-12T11:22:35;103302.28;;;9.90;96.64
16595;BME280;8410;52.532;13.336;2023-02-12T11:25:13;103296.44;;;10.24;94.92
16595;BME280;8410;52.532;13.336;2023-02-12T11:27:42;103291.75;;;10.48;92.80
16595;BME280;8410;52.532;13.336;2023-02-12T11:30:15;103293.28;;;9.99;92.67
16595;BME280;8410;52.532;13.336;2023-02-12T11:32:43;103294.22;;;9.84;93.45
16595;BME280;8410;52.532;13.336;2023-02-12T11:35:13;103293.94;;;9.94;95.96
16595;BME280;8410;52.532;13.336;2023-02-12T11:37:44;103301.66;;;9.94;95.70
16595;BME280;8410;52.532;13.336;2023-02-12T11:40:17;103300.78;;;9.79;95.94
16595;BME280;8410;52.532;13.336;2023-02-12T11:42:48;103286.72;;;10.04;95.87
16595;BME280;8410;52.532;13.336;2023-02-12T11:45:20;103297.44;;;9.65;96.41
16595;BME280;8410;52.532;13.336;2023-02-12T11:47:49;103294.81;;;9.80;97.44
16595;BME280;8410;52.532;13.336;2023-02-12T11:50:24;103299.38;;;9.25;98.02
16595;BME280;8410;52.532;13.336;2023-02-12T11:52:55;103298.91;;;9.32;100.00
16595;BME280;8410;52.532;13.336;2023-02-12T11:55:26;103288.72;;;9.48;99.19
16595;BME280;8410;52.532;13.336;2023-02-12T11:58:01;103290.50;;;9.79;98.00
16595;BME280;8410;52.532;13.336;2023-02-12T12:00:32;103285.63;;;10.30;95.92
16595;BME280;8410;52.532;13.336;2023-02-12T12:03:08;103290.16;;;9.73;96.18
16595;BME280;8410;52.532;13.336;2023-02-12T12:05:42;103287.50;;;8.84;98.47
16595;BME280;8410;52.532;13.336;2023-02-12T12:08:15;103293.56;;;8.99;98.71
16595;BME280;8410;52.532;13.336;2023-02-12T12:10:48;103283.19;;;8.98;100.00
16595;BME280;8410;52.532;13.336;2023-02-12T12:13:22;103288.22;;;9.39;97.16
16595;BME280;8410;52.532;13.336;2023-02-12T12:15:57;103285.19;;;9.17;99.00
16595;BME280;8410;52.532;13.336;2023-02-12T12:18:46;103277.63;;;9.79;96.09
16595;BME280;8410;52.532;13.336;2023-02-12T12:21:36;103269.66;;;9.75;96.28
16595;BME280;8410;52.532;13.336;2023-02-12T12:24:10;103270.69;;;10.24;93.61
16595;BME280;8410;52.532;13.336;2023-02-12T12:26:44;103277.09;;;10.16;92.60
16595;BME280;8410;52.532;13.336;2023-02-12T12:29:16;103266.84;;;10.01;91.82
16595;BME280;8410;52.532;13.336;2023-02-12T12:31:49;103264.00;;;9.97;93.83
16595;BME280;8410;52.532;13.336;2023-02-12T12:34:20;103264.88;;;10.59;90.47
16595;BME280;8410;52.532;13.336;2023-02-12T12:37:04;103260.59;;;10.44;91.16
16595;BME280;8410;52.532;13.336;2023-02-12T12:39:43;103256.59;;;10.65;90.59
16595;BME280;8410;52.532;13.336;2023-02-12T12:45:42;103242.84;;;10.17;91.07
16595;BME280;8410;52.532;13.336;2023-02-12T12:48:22;103246.94;;;10.13;92.93
16595;BME280;8410;52.532;13.336;2023-02-12T12:51:05;103242.78;;;10.97;90.99
16595;BME280;8410;52.532;13.336;2023-02-12T12:53:44;103247.66;;;11.09;89.71
16595;BME280;8410;52.532;13.336;2023-02-12T12:56:31;103243.66;;;10.98;89.43
16595;BME280;8410;52.532;13.336;2023-02-12T12:59:19;103251.44;;;10.49;90.03
16595;BME280;8410;52.532;13.336;2023-02-12T13:02:04;103246.59;;;10.71;89.95
16595;BME280;8410;52.532;13.336;2023-02-12T13:04:55;103244.56;;;10.33;89.31
16595;BME280;8410;52.532;13.336;2023-02-12T13:07:42;103248.19;;;10.53;90.61
16595;BME280;8410;52.532;13.336;2023-02-12T13:10:19;103248.69;;;9.83;91.78
16595;BME280;8410;52.532;13.336;2023-02-12T13:13:02;103255.22;;;9.32;93.99
16595;BME280;8410;52.532;13.336;2023-02-12T13:15:36;103250.72;;;10.20;91.41
16595;BME280;8410;52.532;13.336;2023-02-12T13:18:13;103250.88;;;10.23;89.82
16595;BME280;8410;52.532;13.336;2023-02-12T13:20:49;103235.09;;;10.01;91.30
16595;BME280;8410;52.532;13.336;2023-02-12T13:23:23;103241.22;;;10.67;87.56